createdAt,value
2017-02-18T00:00:24.511Z,20.49
2017-02-18T00:01:05.158Z,20.46
2017-02-18T00:01:45.804Z,20.43
2017-02-18T00:02:26.451Z,20.46
2017-02-18T00:03:07.104Z,20.43
2017-02-18T00:03:47.740Z,20.35
2017-02-18T00:04:28.375Z,20.24
2017-02-18T00:05:09.010Z,20.41
2017-02-18T00:05:49.655Z,20.34
2017-02-18T00:06:30.305Z,20.34
2017-02-18T00:07:10.942Z,20.43
2017-02-18T00:07:51.585Z,20.43
2017-02-18T00:08:32.227Z,20.46
2017-02-18T00:09:12.868Z,20.46
2017-02-18T00:09:53.509Z,20.47
2017-02-18T00:10:34.151Z,20.47
2017-02-18T00:11:14.859Z,20.54
2017-02-18T00:11:55.490Z,20.51
2017-02-18T00:12:36.122Z,20.43
2017-02-18T00:13:16.823Z,20.49
2017-02-18T00:13:57.449Z,20.51
2017-02-18T00:14:38.086Z,20.41
2017-02-18T00:15:18.740Z,20.47
2017-02-18T00:15:59.386Z,20.42
2017-02-18T00:16:40.027Z,20.41
2017-02-18T00:17:20.681Z,20.41
2017-02-18T00:18:01.324Z,20.43
2017-02-18T00:18:41.952Z,20.42
2017-02-18T00:19:22.587Z,20.41
2017-02-18T00:20:03.229Z,20.47
2017-02-18T00:20:43.911Z,20.41
2017-02-18T00:21:24.511Z,20.43
2017-02-18T00:22:05.184Z,20.46
2017-02-18T00:22:45.819Z,20.43
2017-02-18T00:23:26.448Z,20.42
2017-02-18T00:24:07.084Z,20.43
2017-02-18T00:24:47.719Z,20.46
2017-02-18T00:25:28.357Z,20.33
2017-02-18T00:26:09.004Z,20.39
2017-02-18T00:26:49.640Z,20.42
2017-02-18T00:27:30.285Z,20.38
2017-02-18T00:28:10.960Z,20.31
2017-02-18T00:28:51.591Z,20.35
2017-02-18T00:29:32.227Z,20.34
2017-02-18T00:30:12.866Z,20.24
2017-02-18T00:30:53.518Z,20.28
2017-02-18T00:31:34.245Z,20.25
2017-02-18T00:32:14.881Z,20.34
2017-02-18T00:32:55.547Z,20.34
2017-02-18T00:33:36.219Z,20.41
2017-02-18T00:34:16.860Z,20.42
2017-02-18T00:34:57.581Z,20.41
2017-02-18T00:35:38.232Z,20.41
2017-02-18T00:36:18.870Z,20.43
2017-02-18T00:36:59.587Z,20.46
2017-02-18T00:37:40.230Z,20.47
2017-02-18T00:38:20.863Z,20.39
2017-02-18T00:39:01.514Z,20.34
2017-02-18T00:39:42.155Z,20.25
2017-02-18T00:40:22.800Z,20.35
2017-02-18T00:41:03.452Z,20.31
2017-02-18T00:41:44.103Z,20.35
2017-02-18T00:42:24.752Z,20.25
2017-02-18T00:43:05.390Z,20.21
2017-02-18T00:43:46.025Z,20.2
2017-02-18T00:44:26.659Z,20.31
2017-02-18T00:45:07.333Z,20.28
2017-02-18T00:45:47.971Z,20.25
2017-02-18T00:46:28.612Z,20.23
2017-02-18T00:47:09.283Z,20.25
2017-02-18T00:47:49.921Z,20.38
2017-02-18T00:48:31.100Z,20.39
2017-02-18T00:49:11.735Z,20.34
2017-02-18T00:49:52.420Z,20.41
2017-02-18T00:50:33.059Z,20.38
2017-02-18T00:51:13.691Z,20.41
2017-02-18T00:51:54.337Z,20.33
2017-02-18T00:52:34.979Z,20.3
2017-02-18T00:53:15.623Z,20.28
2017-02-18T00:53:56.274Z,20.23
2017-02-18T00:54:36.992Z,20.23
2017-02-18T00:55:17.625Z,20.27
2017-02-18T00:55:58.265Z,20.31
2017-02-18T00:56:38.901Z,20.21
2017-02-18T00:57:19.538Z,20.23
2017-02-18T00:58:00.227Z,20.25
2017-02-18T00:58:40.861Z,20.21
2017-02-18T00:59:21.499Z,20.27
2017-02-18T01:00:02.143Z,20.3
2017-02-18T01:00:42.871Z,20.34
2017-02-18T01:01:23.502Z,20.27
2017-02-18T01:02:04.145Z,20.27
2017-02-18T01:02:44.784Z,20.27
2017-02-18T01:03:25.437Z,20.18
2017-02-18T01:04:06.068Z,20.28
2017-02-18T01:04:46.703Z,20.23
2017-02-18T01:05:27.393Z,20.27
2017-02-18T01:06:08.064Z,20.3
2017-02-18T01:06:48.714Z,20.25
2017-02-18T01:07:29.338Z,20.28
2017-02-18T01:08:09.977Z,20.3
2017-02-18T01:08:50.621Z,20.27
2017-02-18T01:09:31.257Z,20.25
2017-02-18T01:10:11.887Z,20.23
2017-02-18T01:10:52.516Z,20.16
2017-02-18T01:11:33.157Z,20.23
2017-02-18T01:12:13.792Z,20.31
2017-02-18T01:12:54.531Z,20.18
2017-02-18T01:13:35.289Z,20.21
2017-02-18T01:14:15.933Z,20.24
2017-02-18T01:14:56.556Z,20.23
2017-02-18T01:15:37.190Z,20.2
2017-02-18T01:16:17.816Z,20.2
2017-02-18T01:16:58.447Z,20.23
2017-02-18T01:17:39.093Z,20.24
2017-02-18T01:18:19.721Z,20.2
2017-02-18T01:19:00.359Z,20.24
2017-02-18T01:19:40.980Z,20.18
2017-02-18T01:20:21.609Z,20.18
2017-02-18T01:21:02.277Z,20.25
2017-02-18T01:21:42.913Z,20.2
2017-02-18T01:22:23.534Z,20.31
2017-02-18T01:23:04.174Z,20.16
2017-02-18T01:23:44.811Z,20.23
2017-02-18T01:24:25.441Z,20.23
2017-02-18T01:25:06.068Z,20.21
2017-02-18T01:25:46.771Z,20.27
2017-02-18T01:26:27.412Z,20.25
2017-02-18T01:27:08.042Z,20.21
2017-02-18T01:27:48.674Z,20.21
2017-02-18T01:28:29.309Z,20.06
2017-02-18T01:29:09.982Z,20.21
2017-02-18T01:29:50.572Z,20.18
2017-02-18T01:30:31.205Z,20.2
2017-02-18T01:31:11.852Z,20.2
2017-02-18T01:31:52.474Z,20.2
2017-02-18T01:32:33.121Z,20.23
2017-02-18T01:33:13.751Z,20.15
2017-02-18T01:33:54.371Z,20.12
2017-02-18T01:34:35.001Z,20.12
2017-02-18T01:35:15.676Z,20.18
2017-02-18T01:35:56.302Z,20.2
2017-02-18T01:36:36.932Z,20.21
2017-02-18T01:37:17.596Z,20.13
2017-02-18T01:37:58.232Z,20.18
2017-02-18T01:38:38.857Z,20.2
2017-02-18T01:39:19.488Z,20.18
2017-02-18T01:40:00.117Z,20.15
2017-02-18T01:40:40.743Z,20.18
2017-02-18T01:41:21.417Z,20.2
2017-02-18T01:42:02.053Z,20.2
2017-02-18T01:42:42.667Z,20.15
2017-02-18T01:43:23.349Z,20.16
2017-02-18T01:44:03.977Z,20.27
2017-02-18T01:44:44.599Z,20.08
2017-02-18T01:45:25.268Z,20.18
2017-02-18T01:46:05.913Z,20.06
2017-02-18T01:46:46.544Z,20.12
2017-02-18T01:47:27.232Z,20.2
2017-02-18T01:48:07.861Z,20.23
2017-02-18T01:48:48.495Z,20.23
2017-02-18T01:49:29.159Z,20.24
2017-02-18T01:50:09.785Z,20.21
2017-02-18T01:50:50.414Z,20.27
2017-02-18T01:51:31.047Z,20.24
2017-02-18T01:52:11.703Z,20.21
2017-02-18T01:52:52.337Z,20.08
2017-02-18T01:53:32.972Z,20.18
2017-02-18T01:54:13.593Z,20.16
2017-02-18T01:54:54.215Z,20.25
2017-02-18T01:55:34.855Z,20.24
2017-02-18T01:56:15.484Z,20.25
2017-02-18T01:56:56.116Z,20.15
2017-02-18T01:57:36.849Z,20.2
2017-02-18T01:58:17.592Z,20.12
2017-02-18T01:58:58.225Z,20.23
2017-02-18T01:59:38.899Z,20.27
2017-02-18T02:00:19.537Z,20.23
2017-02-18T02:01:00.169Z,20.25
2017-02-18T02:01:40.859Z,20.23
2017-02-18T02:02:21.505Z,20.18
2017-02-18T02:03:02.129Z,20.2
2017-02-18T02:03:42.757Z,20.23
2017-02-18T02:04:23.401Z,20.2
2017-02-18T02:05:04.036Z,20.12
2017-02-18T02:05:44.661Z,20.15
2017-02-18T02:06:25.403Z,20.24
2017-02-18T02:07:06.030Z,20.18
2017-02-18T02:07:46.660Z,20.21
2017-02-18T02:08:27.287Z,20.15
2017-02-18T02:09:07.947Z,20.18
2017-02-18T02:09:48.541Z,20.08
2017-02-18T02:10:29.180Z,20.12
2017-02-18T02:11:09.814Z,20.09
2017-02-18T02:11:50.431Z,20.06
2017-02-18T02:12:31.153Z,20.15
2017-02-18T02:13:11.786Z,20.09
2017-02-18T02:13:52.417Z,20.15
2017-02-18T02:14:33.050Z,20.18
2017-02-18T02:15:13.680Z,20.15
2017-02-18T02:15:54.344Z,20.1
2017-02-18T02:16:35.039Z,20.15
2017-02-18T02:17:15.677Z,20.2
2017-02-18T02:17:56.307Z,20.2
2017-02-18T02:18:36.963Z,20.03
2017-02-18T02:19:17.606Z,20.13
2017-02-18T02:19:58.237Z,20.09
2017-02-18T02:20:38.888Z,20.08
2017-02-18T02:21:19.562Z,20.08
2017-02-18T02:22:00.209Z,20.05
2017-02-18T02:22:40.845Z,20.13
2017-02-18T02:23:21.545Z,20.16
2017-02-18T02:24:02.176Z,20.16
2017-02-18T02:24:42.804Z,20.06
2017-02-18T02:25:23.469Z,20.09
2017-02-18T02:26:04.086Z,20.08
2017-02-18T02:26:44.716Z,20.09
2017-02-18T02:27:25.346Z,20.13
2017-02-18T02:28:05.987Z,20.09
2017-02-18T02:28:46.696Z,20.09
2017-02-18T02:29:27.347Z,20.16
2017-02-18T02:30:07.984Z,20.05
2017-02-18T02:30:48.609Z,20.1
2017-02-18T02:31:29.235Z,20.12
2017-02-18T02:32:09.862Z,20.03
2017-02-18T02:32:50.492Z,20.12
2017-02-18T02:33:31.118Z,20.13
2017-02-18T02:34:11.745Z,20.05
2017-02-18T02:34:52.409Z,20.05
2017-02-18T02:35:33.030Z,20.13
2017-02-18T02:36:13.663Z,20.06
2017-02-18T02:36:54.291Z,20.05
2017-02-18T02:37:34.929Z,20.13
2017-02-18T02:38:15.560Z,20.03
2017-02-18T02:38:56.288Z,20.05
2017-02-18T02:39:36.916Z,20.08
2017-02-18T02:40:17.553Z,20.03
2017-02-18T02:40:58.178Z,20.08
2017-02-18T02:41:38.806Z,20.12
2017-02-18T02:42:19.434Z,20.06
2017-02-18T02:43:00.060Z,20.08
2017-02-18T02:43:40.693Z,20.08
2017-02-18T02:44:21.327Z,20.1
2017-02-18T02:45:02.030Z,20
2017-02-18T02:45:42.662Z,20.13
2017-02-18T02:46:23.293Z,20.08
2017-02-18T02:47:04.017Z,20.09
2017-02-18T02:47:44.643Z,20.12
2017-02-18T02:48:25.267Z,20.03
2017-02-18T02:49:05.899Z,20.06
2017-02-18T02:49:46.579Z,20.1
2017-02-18T02:50:27.204Z,20.12
2017-02-18T02:51:07.841Z,20.1
2017-02-18T02:51:48.546Z,20.16
2017-02-18T02:52:29.185Z,20.09
2017-02-18T02:53:09.813Z,20.09
2017-02-18T02:53:50.520Z,20.06
2017-02-18T02:54:31.152Z,20.03
2017-02-18T02:55:11.816Z,20.08
2017-02-18T02:55:52.441Z,20.12
2017-02-18T02:56:33.062Z,20.06
2017-02-18T02:57:13.682Z,20.12
2017-02-18T02:57:54.378Z,20.1
2017-02-18T02:58:35.006Z,20.05
2017-02-18T02:59:15.641Z,20.08
2017-02-18T02:59:56.375Z,20.08
2017-02-18T03:00:37.002Z,20.12
2017-02-18T03:01:17.648Z,20.02
2017-02-18T03:01:58.328Z,20.05
2017-02-18T03:02:38.961Z,20.06
2017-02-18T03:03:19.584Z,20.13
2017-02-18T03:04:00.252Z,20.02
2017-02-18T03:04:40.886Z,20.12
2017-02-18T03:05:21.512Z,20
2017-02-18T03:06:02.193Z,20.03
2017-02-18T03:06:42.818Z,20.09
2017-02-18T03:07:23.457Z,20.15
2017-02-18T03:08:04.178Z,20.05
2017-02-18T03:08:44.808Z,20.08
2017-02-18T03:09:25.437Z,20.13
2017-02-18T03:10:06.158Z,20.02
2017-02-18T03:10:46.779Z,20.09
2017-02-18T03:11:27.414Z,20.08
2017-02-18T03:12:08.037Z,20.1
2017-02-18T03:12:48.675Z,20.06
2017-02-18T03:13:29.318Z,20.13
2017-02-18T03:14:09.954Z,20.06
2017-02-18T03:14:50.703Z,20.03
2017-02-18T03:15:31.328Z,20.05
2017-02-18T03:16:12.015Z,20.12
2017-02-18T03:16:52.646Z,20.05
2017-02-18T03:17:33.278Z,20
2017-02-18T03:18:14.003Z,20.03
2017-02-18T03:18:54.634Z,20.06
2017-02-18T03:19:35.260Z,20.08
2017-02-18T03:20:15.887Z,20.06
2017-02-18T03:20:56.590Z,20.03
2017-02-18T03:21:37.224Z,20.03
2017-02-18T03:22:17.852Z,19.9
2017-02-18T03:22:58.524Z,19.91
2017-02-18T03:23:39.179Z,20
2017-02-18T03:24:19.812Z,19.97
2017-02-18T03:25:00.551Z,20.05
2017-02-18T03:25:41.210Z,20.08
2017-02-18T03:26:21.834Z,20
2017-02-18T03:27:02.468Z,20.05
2017-02-18T03:27:43.089Z,20.05
2017-02-18T03:28:23.740Z,20.1
2017-02-18T03:29:04.394Z,20.05
2017-02-18T03:29:45.015Z,20.02
2017-02-18T03:30:25.651Z,20.06
2017-02-18T03:31:07.030Z,20.1
2017-02-18T03:31:47.666Z,20.02
2017-02-18T03:32:28.296Z,20.09
2017-02-18T03:33:08.921Z,20.02
2017-02-18T03:33:49.549Z,20.12
2017-02-18T03:34:30.267Z,20.16
2017-02-18T03:35:10.901Z,20.06
2017-02-18T03:35:51.554Z,20.13
2017-02-18T03:36:32.178Z,20.13
2017-02-18T03:37:12.804Z,20.03
2017-02-18T03:37:53.431Z,20.03
2017-02-18T03:38:34.056Z,20.03
2017-02-18T03:39:14.682Z,20.08
2017-02-18T03:39:55.313Z,20.02
2017-02-18T03:40:35.937Z,20
2017-02-18T03:41:16.567Z,20.03
2017-02-18T03:41:57.195Z,20.09
2017-02-18T03:42:37.816Z,20.05
2017-02-18T03:43:18.465Z,20.05
2017-02-18T03:43:59.095Z,20
2017-02-18T03:44:39.727Z,20.05
2017-02-18T03:45:20.412Z,20.02
2017-02-18T03:46:01.062Z,19.97
2017-02-18T03:46:41.718Z,19.94
2017-02-18T03:47:22.309Z,19.93
2017-02-18T03:48:02.937Z,19.87
2017-02-18T03:48:43.571Z,19.91
2017-02-18T03:49:24.204Z,20
2017-02-18T03:50:04.835Z,19.91
2017-02-18T03:50:45.499Z,20.03
2017-02-18T03:51:26.135Z,20.08
2017-02-18T03:52:06.791Z,20
2017-02-18T03:52:47.505Z,19.97
2017-02-18T03:53:28.141Z,19.95
2017-02-18T03:54:08.763Z,19.95
2017-02-18T03:54:49.464Z,19.95
2017-02-18T03:55:30.104Z,20.05
2017-02-18T03:56:10.732Z,20.09
2017-02-18T03:56:51.385Z,19.95
2017-02-18T03:57:32.010Z,19.97
2017-02-18T03:58:12.652Z,19.91
2017-02-18T03:58:53.287Z,19.91
2017-02-18T03:59:33.909Z,19.93
2017-02-18T04:00:14.551Z,19.93
2017-02-18T04:00:55.174Z,19.91
2017-02-18T04:01:35.820Z,19.91
2017-02-18T04:02:16.447Z,19.93
2017-02-18T04:02:57.069Z,20.02
2017-02-18T04:03:37.788Z,20.03
2017-02-18T04:04:18.415Z,19.94
2017-02-18T04:04:59.042Z,19.93
2017-02-18T04:05:39.678Z,19.93
2017-02-18T04:06:20.297Z,19.95
2017-02-18T04:07:00.932Z,19.94
2017-02-18T04:07:41.648Z,19.95
2017-02-18T04:08:22.284Z,19.98
2017-02-18T04:09:02.921Z,19.94
2017-02-18T04:09:43.549Z,19.95
2017-02-18T04:10:24.181Z,19.91
2017-02-18T04:11:04.811Z,19.93
2017-02-18T04:11:45.489Z,19.93
2017-02-18T04:12:26.119Z,19.93
2017-02-18T04:13:06.803Z,19.88
2017-02-18T04:13:47.451Z,19.95
2017-02-18T04:14:28.078Z,19.91
2017-02-18T04:15:08.703Z,20
2017-02-18T04:15:49.334Z,20
2017-02-18T04:16:29.967Z,20.02
2017-02-18T04:17:10.591Z,19.95
2017-02-18T04:17:51.250Z,19.97
2017-02-18T04:18:31.886Z,20
2017-02-18T04:19:12.510Z,20.02
2017-02-18T04:19:53.144Z,19.93
2017-02-18T04:20:33.768Z,19.95
2017-02-18T04:21:14.401Z,19.95
2017-02-18T04:21:55.056Z,19.97
2017-02-18T04:22:35.693Z,19.95
2017-02-18T04:23:16.314Z,19.94
2017-02-18T04:23:56.956Z,19.93
2017-02-18T04:24:37.585Z,19.94
2017-02-18T04:25:18.225Z,19.88
2017-02-18T04:25:58.923Z,19.9
2017-02-18T04:26:39.561Z,19.9
2017-02-18T04:27:20.186Z,19.9
2017-02-18T04:28:00.828Z,19.91
2017-02-18T04:28:41.460Z,19.93
2017-02-18T04:29:22.094Z,19.95
2017-02-18T04:30:02.724Z,19.97
2017-02-18T04:30:43.363Z,19.93
2017-02-18T04:31:23.988Z,19.93
2017-02-18T04:32:04.632Z,19.98
2017-02-18T04:32:45.258Z,19.93
2017-02-18T04:33:25.878Z,19.93
2017-02-18T04:34:06.505Z,19.93
2017-02-18T04:34:47.140Z,19.93
2017-02-18T04:35:27.765Z,19.91
2017-02-18T04:36:08.410Z,19.91
2017-02-18T04:36:49.042Z,19.97
2017-02-18T04:37:29.718Z,19.94
2017-02-18T04:38:10.346Z,19.98
2017-02-18T04:38:50.995Z,19.93
2017-02-18T04:39:31.680Z,19.86
2017-02-18T04:40:12.308Z,19.93
2017-02-18T04:40:52.936Z,19.94
2017-02-18T04:41:33.665Z,19.93
2017-02-18T04:42:14.288Z,19.91
2017-02-18T04:42:54.910Z,19.9
2017-02-18T04:43:35.610Z,19.97
2017-02-18T04:44:16.249Z,19.93
2017-02-18T04:44:56.878Z,19.94
2017-02-18T04:45:37.502Z,19.93
2017-02-18T04:46:18.134Z,19.83
2017-02-18T04:46:58.765Z,19.87
2017-02-18T04:47:39.387Z,19.76
2017-02-18T04:48:20.018Z,19.86
2017-02-18T04:49:00.647Z,19.83
2017-02-18T04:49:41.427Z,19.8
2017-02-18T04:50:22.055Z,19.94
2017-02-18T04:51:02.686Z,19.83
2017-02-18T04:51:43.327Z,19.86
2017-02-18T04:52:23.952Z,19.83
2017-02-18T04:53:04.587Z,19.87
2017-02-18T04:53:45.227Z,19.9
2017-02-18T04:54:25.871Z,19.93
2017-02-18T04:55:06.504Z,19.88
2017-02-18T04:55:47.147Z,19.93
2017-02-18T04:56:27.783Z,19.78
2017-02-18T04:57:08.408Z,19.73
2017-02-18T04:57:49.084Z,19.79
2017-02-18T04:58:29.732Z,19.79
2017-02-18T04:59:10.371Z,19.91
2017-02-18T04:59:51.002Z,19.95
2017-02-18T05:00:31.629Z,19.83
2017-02-18T05:01:12.249Z,19.97
2017-02-18T05:01:52.893Z,19.79
2017-02-18T05:02:33.674Z,19.94
2017-02-18T05:03:14.303Z,19.88
2017-02-18T05:03:54.931Z,19.78
2017-02-18T05:04:35.558Z,19.8
2017-02-18T05:05:16.189Z,19.83
2017-02-18T05:05:56.904Z,19.8
2017-02-18T05:06:37.545Z,19.88
2017-02-18T05:07:18.169Z,19.83
2017-02-18T05:07:58.810Z,19.8
2017-02-18T05:08:39.465Z,19.86
2017-02-18T05:09:20.082Z,19.79
2017-02-18T05:10:00.713Z,19.94
2017-02-18T05:10:41.335Z,19.98
2017-02-18T05:11:21.962Z,19.94
2017-02-18T05:12:02.665Z,19.88
2017-02-18T05:12:43.296Z,19.95
2017-02-18T05:13:23.922Z,19.83
2017-02-18T05:14:04.559Z,19.84
2017-02-18T05:14:45.188Z,19.98
2017-02-18T05:15:25.811Z,19.86
2017-02-18T05:16:06.540Z,19.83
2017-02-18T05:16:47.179Z,19.8
2017-02-18T05:17:27.794Z,19.79
2017-02-18T05:18:08.431Z,19.86
2017-02-18T05:18:49.101Z,19.84
2017-02-18T05:19:29.740Z,19.79
2017-02-18T05:20:10.371Z,19.83
2017-02-18T05:20:51.027Z,19.8
2017-02-18T05:21:31.675Z,19.84
2017-02-18T05:22:12.302Z,19.9
2017-02-18T05:22:52.934Z,19.84
2017-02-18T05:23:33.553Z,19.8
2017-02-18T05:24:14.200Z,19.84
2017-02-18T05:24:54.819Z,19.94
2017-02-18T05:25:35.442Z,19.84
2017-02-18T05:26:16.067Z,19.79
2017-02-18T05:26:56.710Z,19.91
2017-02-18T05:27:37.340Z,19.87
2017-02-18T05:28:18.027Z,19.83
2017-02-18T05:28:58.666Z,19.8
2017-02-18T05:29:39.298Z,19.8
2017-02-18T05:30:19.949Z,19.93
2017-02-18T05:31:00.598Z,19.93
2017-02-18T05:31:41.225Z,19.87
2017-02-18T05:32:22.017Z,19.86
2017-02-18T05:33:02.629Z,19.94
2017-02-18T05:33:43.279Z,19.91
2017-02-18T05:34:23.911Z,19.88
2017-02-18T05:35:04.565Z,19.84
2017-02-18T05:35:45.255Z,19.75
2017-02-18T05:36:25.900Z,19.93
2017-02-18T05:37:06.534Z,19.88
2017-02-18T05:37:47.171Z,19.9
2017-02-18T05:38:27.791Z,19.9
2017-02-18T05:39:08.421Z,19.8
2017-02-18T05:39:49.102Z,19.79
2017-02-18T05:40:29.726Z,19.91
2017-02-18T05:41:10.372Z,19.87
2017-02-18T05:41:50.995Z,19.86
2017-02-18T05:42:31.629Z,19.86
2017-02-18T05:43:12.344Z,19.97
2017-02-18T05:43:52.968Z,19.95
2017-02-18T05:44:33.584Z,19.94
2017-02-18T05:45:14.274Z,19.86
2017-02-18T05:45:54.920Z,19.84
2017-02-18T05:46:35.552Z,19.84
2017-02-18T05:47:16.230Z,19.94
2017-02-18T05:47:56.860Z,19.79
2017-02-18T05:48:37.491Z,19.91
2017-02-18T05:49:18.113Z,19.8
2017-02-18T05:49:58.752Z,19.79
2017-02-18T05:50:39.375Z,19.84
2017-02-18T05:51:20.005Z,19.78
2017-02-18T05:52:00.666Z,19.78
2017-02-18T05:52:41.294Z,19.83
2017-02-18T05:53:21.923Z,19.8
2017-02-18T05:54:02.565Z,19.9
2017-02-18T05:54:43.211Z,19.79
2017-02-18T05:55:23.835Z,19.83
2017-02-18T05:56:04.461Z,19.84
2017-02-18T05:56:45.082Z,19.83
2017-02-18T05:57:25.727Z,19.79
2017-02-18T05:58:06.359Z,19.72
2017-02-18T05:58:47.047Z,19.78
2017-02-18T05:59:27.682Z,19.79
2017-02-18T06:00:08.404Z,19.8
2017-02-18T06:00:49.030Z,19.76
2017-02-18T06:01:29.659Z,19.84
2017-02-18T06:02:10.336Z,19.84
2017-02-18T06:02:50.968Z,19.84
2017-02-18T06:03:31.602Z,19.79
2017-02-18T06:04:12.262Z,19.83
2017-02-18T06:04:52.891Z,19.78
2017-02-18T06:05:33.521Z,19.76
2017-02-18T06:06:14.152Z,19.76
2017-02-18T06:06:54.776Z,19.78
2017-02-18T06:07:35.418Z,19.78
2017-02-18T06:08:16.058Z,19.84
2017-02-18T06:08:56.690Z,19.78
2017-02-18T06:09:37.318Z,19.79
2017-02-18T06:10:17.948Z,19.88
2017-02-18T06:10:58.583Z,19.86
2017-02-18T06:11:39.213Z,19.8
2017-02-18T06:12:19.872Z,19.91
2017-02-18T06:13:00.520Z,19.76
2017-02-18T06:13:41.182Z,19.84
2017-02-18T06:14:21.807Z,19.9
2017-02-18T06:15:02.440Z,19.86
2017-02-18T06:15:43.065Z,19.78
2017-02-18T06:16:23.700Z,19.8
2017-02-18T06:17:04.328Z,19.76
2017-02-18T06:17:45.008Z,19.78
2017-02-18T06:18:25.640Z,19.84
2017-02-18T06:19:06.282Z,19.79
2017-02-18T06:19:46.908Z,19.84
2017-02-18T06:20:27.532Z,19.79
2017-02-18T06:21:08.163Z,19.76
2017-02-18T06:21:48.914Z,19.79
2017-02-18T06:22:29.553Z,19.8
2017-02-18T06:23:10.185Z,19.78
2017-02-18T06:23:50.836Z,19.78
2017-02-18T06:24:31.488Z,19.79
2017-02-18T06:25:12.130Z,19.84
2017-02-18T06:25:52.757Z,19.75
2017-02-18T06:26:33.469Z,19.8
2017-02-18T06:27:14.095Z,19.79
2017-02-18T06:27:54.784Z,19.76
2017-02-18T06:28:35.415Z,19.83
2017-02-18T06:29:16.032Z,19.79
2017-02-18T06:29:56.668Z,19.79
2017-02-18T06:30:37.361Z,19.8
2017-02-18T06:31:17.984Z,19.72
2017-02-18T06:31:58.612Z,19.83
2017-02-18T06:32:39.289Z,19.8
2017-02-18T06:33:19.922Z,19.79
2017-02-18T06:34:00.596Z,19.79
2017-02-18T06:34:41.226Z,19.84
2017-02-18T06:35:21.867Z,19.86
2017-02-18T06:36:02.500Z,19.83
2017-02-18T06:36:43.213Z,19.83
2017-02-18T06:37:23.845Z,19.73
2017-02-18T06:38:04.485Z,19.73
2017-02-18T06:38:45.203Z,19.78
2017-02-18T06:39:25.837Z,19.76
2017-02-18T06:40:06.461Z,19.76
2017-02-18T06:40:47.162Z,19.8
2017-02-18T06:41:27.825Z,19.78
2017-02-18T06:42:08.450Z,19.79
2017-02-18T06:42:49.078Z,19.72
2017-02-18T06:43:29.781Z,19.78
2017-02-18T06:44:10.414Z,19.8
2017-02-18T06:44:51.047Z,19.7
2017-02-18T06:45:31.688Z,19.8
2017-02-18T06:46:12.309Z,19.73
2017-02-18T06:46:52.945Z,19.75
2017-02-18T06:47:33.578Z,19.79
2017-02-18T06:48:14.210Z,19.8
2017-02-18T06:48:54.840Z,19.75
2017-02-18T06:49:35.494Z,19.78
2017-02-18T06:50:16.117Z,19.78
2017-02-18T06:50:56.749Z,19.79
2017-02-18T06:51:37.416Z,19.75
2017-02-18T06:52:18.048Z,19.78
2017-02-18T06:52:58.677Z,19.8
2017-02-18T06:53:39.335Z,19.76
2017-02-18T06:54:19.960Z,19.72
2017-02-18T06:55:00.588Z,19.68
2017-02-18T06:55:41.214Z,19.73
2017-02-18T06:56:21.840Z,19.7
2017-02-18T06:57:02.475Z,19.7
2017-02-18T06:57:43.103Z,19.75
2017-02-18T06:58:23.725Z,19.7
2017-02-18T06:59:04.356Z,19.73
2017-02-18T06:59:44.980Z,19.69
2017-02-18T07:00:25.601Z,19.78
2017-02-18T07:01:06.308Z,19.7
2017-02-18T07:01:46.938Z,19.79
2017-02-18T07:02:27.585Z,19.75
2017-02-18T07:03:08.210Z,19.7
2017-02-18T07:03:48.851Z,19.76
2017-02-18T07:04:29.508Z,19.7
2017-02-18T07:05:10.137Z,19.75
2017-02-18T07:05:50.770Z,19.76
2017-02-18T07:06:31.392Z,19.79
2017-02-18T07:07:12.013Z,19.79
2017-02-18T07:07:52.663Z,19.8
2017-02-18T07:08:33.275Z,19.83
2017-02-18T07:09:13.903Z,19.8
2017-02-18T07:09:54.534Z,19.84
2017-02-18T07:10:35.259Z,19.69
2017-02-18T07:11:15.888Z,19.73
2017-02-18T07:11:56.506Z,19.69
2017-02-18T07:12:37.136Z,19.72
2017-02-18T07:13:17.765Z,19.72
2017-02-18T07:13:58.400Z,19.73
2017-02-18T07:14:39.118Z,19.78
2017-02-18T07:15:19.741Z,19.78
2017-02-18T07:16:00.367Z,19.78
2017-02-18T07:16:40.988Z,19.75
2017-02-18T07:17:21.622Z,19.72
2017-02-18T07:18:02.252Z,19.78
2017-02-18T07:18:42.910Z,19.79
2017-02-18T07:19:23.539Z,19.75
2017-02-18T07:20:04.168Z,19.76
2017-02-18T07:20:44.794Z,19.75
2017-02-18T07:21:25.422Z,19.79
2017-02-18T07:22:06.050Z,19.69
2017-02-18T07:22:46.690Z,19.76
2017-02-18T07:23:27.385Z,19.73
2017-02-18T07:24:08.015Z,19.79
2017-02-18T07:24:48.683Z,19.7
2017-02-18T07:25:29.306Z,19.75
2017-02-18T07:26:09.938Z,19.72
2017-02-18T07:26:50.613Z,19.78
2017-02-18T07:27:31.243Z,19.76
2017-02-18T07:28:11.867Z,19.75
2017-02-18T07:28:52.500Z,19.76
2017-02-18T07:29:33.239Z,19.73
2017-02-18T07:30:13.886Z,19.68
2017-02-18T07:30:54.534Z,19.72
2017-02-18T07:31:35.169Z,19.68
2017-02-18T07:32:15.801Z,19.61
2017-02-18T07:32:56.430Z,19.75
2017-02-18T07:33:37.088Z,19.73
2017-02-18T07:34:17.716Z,19.73
2017-02-18T07:34:58.385Z,19.75
2017-02-18T07:35:38.974Z,19.63
2017-02-18T07:36:19.634Z,19.75
2017-02-18T07:37:00.257Z,19.72
2017-02-18T07:37:40.898Z,19.73
2017-02-18T07:38:21.571Z,19.7
2017-02-18T07:39:02.155Z,19.73
2017-02-18T07:39:42.793Z,19.73
2017-02-18T07:40:23.431Z,19.75
2017-02-18T07:41:04.062Z,19.72
2017-02-18T07:41:44.696Z,19.69
2017-02-18T07:42:25.331Z,19.7
2017-02-18T07:43:05.953Z,19.7
2017-02-18T07:43:46.610Z,19.72
2017-02-18T07:44:27.252Z,19.75
2017-02-18T07:45:07.962Z,19.73
2017-02-18T07:45:48.588Z,19.63
2017-02-18T07:46:29.329Z,19.69
2017-02-18T07:47:09.980Z,19.69
2017-02-18T07:47:50.604Z,19.65
2017-02-18T07:48:31.233Z,19.7
2017-02-18T07:49:11.873Z,19.75
2017-02-18T07:49:52.499Z,19.7
2017-02-18T07:50:33.124Z,19.69
2017-02-18T07:51:13.759Z,19.68
2017-02-18T07:51:54.422Z,19.68
2017-02-18T07:52:35.062Z,19.68
2017-02-18T07:53:15.676Z,19.68
2017-02-18T07:53:56.307Z,19.7
2017-02-18T07:54:37.034Z,19.72
2017-02-18T07:55:17.677Z,19.7
2017-02-18T07:55:58.311Z,19.7
2017-02-18T07:56:38.936Z,19.7
2017-02-18T07:57:19.568Z,19.7
2017-02-18T07:58:00.200Z,19.73
2017-02-18T07:58:40.826Z,19.72
2017-02-18T07:59:21.456Z,19.7
2017-02-18T08:00:02.085Z,19.7
2017-02-18T08:00:42.706Z,19.72
2017-02-18T08:01:23.347Z,19.68
2017-02-18T08:02:03.975Z,19.75
2017-02-18T08:02:44.610Z,19.7
2017-02-18T08:03:25.240Z,19.69
2017-02-18T08:04:05.903Z,19.75
2017-02-18T08:04:46.566Z,19.68
2017-02-18T08:05:27.207Z,19.69
2017-02-18T08:06:07.834Z,19.66
2017-02-18T08:06:48.465Z,19.75
2017-02-18T08:07:29.146Z,19.69
2017-02-18T08:08:09.774Z,19.73
2017-02-18T08:08:50.428Z,19.69
2017-02-18T08:09:31.055Z,19.75
2017-02-18T08:10:11.690Z,19.72
2017-02-18T08:10:52.347Z,19.68
2017-02-18T08:11:32.985Z,19.7
2017-02-18T08:12:13.618Z,19.75
2017-02-18T08:12:54.272Z,19.63
2017-02-18T08:13:34.897Z,19.65
2017-02-18T08:14:15.523Z,19.66
2017-02-18T08:14:56.237Z,19.72
2017-02-18T08:15:36.781Z,19.69
2017-02-18T08:16:17.408Z,19.68
2017-02-18T08:16:58.034Z,19.65
2017-02-18T08:17:38.667Z,19.73
2017-02-18T08:18:19.306Z,19.72
2017-02-18T08:18:59.947Z,19.69
2017-02-18T08:19:40.568Z,19.61
2017-02-18T08:20:21.196Z,19.69
2017-02-18T08:21:01.820Z,19.6
2017-02-18T08:21:42.443Z,19.66
2017-02-18T08:22:23.090Z,19.73
2017-02-18T08:23:03.714Z,19.7
2017-02-18T08:23:44.342Z,19.68
2017-02-18T08:24:25.071Z,19.7
2017-02-18T08:25:05.709Z,19.7
2017-02-18T08:25:46.333Z,19.58
2017-02-18T08:26:26.957Z,19.68
2017-02-18T08:27:07.593Z,19.65
2017-02-18T08:27:48.227Z,19.68
2017-02-18T08:28:28.867Z,19.68
2017-02-18T08:29:09.488Z,19.68
2017-02-18T08:29:50.120Z,19.65
2017-02-18T08:30:30.750Z,19.73
2017-02-18T08:31:11.397Z,19.73
2017-02-18T08:31:52.032Z,19.69
2017-02-18T08:32:32.650Z,19.73
2017-02-18T08:33:13.280Z,19.68
2017-02-18T08:33:53.906Z,19.76
2017-02-18T08:34:34.529Z,19.7
2017-02-18T08:35:15.153Z,19.69
2017-02-18T08:35:55.791Z,19.72
2017-02-18T08:36:36.430Z,19.69
2017-02-18T08:37:17.055Z,19.6
2017-02-18T08:37:57.681Z,19.72
2017-02-18T08:38:38.315Z,19.75
2017-02-18T08:39:18.956Z,19.68
2017-02-18T08:39:59.593Z,19.75
2017-02-18T08:40:40.218Z,19.68
2017-02-18T08:41:20.851Z,19.69
2017-02-18T08:42:01.513Z,19.72
2017-02-18T08:42:42.140Z,19.72
2017-02-18T08:43:22.771Z,19.73
2017-02-18T08:44:03.442Z,19.75
2017-02-18T08:44:44.077Z,19.65
2017-02-18T08:45:24.711Z,19.66
2017-02-18T08:46:05.337Z,19.65